sensor_id;sensor_type;location;lat;lon;timestamp;P1;durP1;ratioP1;P2;durP2;ratioP2
73421;SDS011;61637;47.760;-122.022;2023-04-03T00:00:01;3.5;;;0.9;;
73421;SDS011;61637;47.760;-122.022;2023-04-03T00:02:01;1.9;;;0.8;;
73421;SDS011;61637;47.760;-122.022;2023-04-03T00:04:01;2.3;;;0.8;;
73421;SDS011;61637;47.760;-122.022;2023-04-03T00:06:01;2.9;;;0.7;;
73421;SDS011;61637;47.760;-122.022;2023-04-03T00:08:01;1.9;;;0.7;;
73421;SDS011;61637;47.760;-122.022;2023-04-03T00:10:02;1.8;;;0.7;;
73421;SDS011;61637;47.760;-122.022;2023-04-03T00:12:01;2.6;;;0.8;;
73421;SDS011;61637;47.760;-122.022;2023-04-03T00:14:01;2.5;;;0.8;;
73421;SDS011;61637;47.760;-122.022;2023-04-03T00:16:01;2.4;;;0.7;;
73421;SDS011;61637;47.760;-122.022;2023-04-03T00:18:01;1.6;;;0.6;;
73421;SDS011;61637;47.760;-122.022;2023-04-03T00:20:03;1.7;;;0.6;;
73421;SDS011;61637;47.760;-122.022;2023-04-03T00:22:01;1.8;;;0.7;;
73421;SDS011;61637;47.760;-122.022;2023-04-03T00:24:01;1.7;;;0.7;;
73421;SDS011;61637;47.760;-122.022;2023-04-03T00:26:02;2.5;;;0.7;;
73421;SDS011;61637;47.760;-122.022;2023-04-03T00:28:02;1.7;;;0.6;;
73421;SDS011;61637;47.760;-122.022;2023-04-03T00:30:02;1.6;;;0.6;;
73421;SDS011;61637;47.760;-122.022;2023-04-03T00:32:01;2.1;;;0.6;;
73421;SDS011;61637;47.760;-122.022;2023-04-03T00:34:01;1.6;;;0.6;;
73421;SDS011;61637;47.760;-122.022;2023-04-03T00:36:07;2.3;;;0.7;;
73421;SDS011;61637;47.760;-122.022;2023-04-03T00:38:01;2.2;;;0.7;;
73421;SDS011;61637;47.760;-122.022;2023-04-03T00:40:02;4.2;;;0.9;;
73421;SDS011;61637;47.760;-122.022;2023-04-03T00:42:02;3.6;;;1.0;;
73421;SDS011;61637;47.760;-122.022;2023-04-03T00:44:19;2.5;;;0.8;;
73421;SDS011;61637;47.760;-122.022;2023-04-03T00:46:01;3.0;;;0.9;;
73421;SDS011;61637;47.760;-122.022;2023-04-03T00:48:03;4.0;;;1.0;;
73421;SDS011;61637;47.760;-122.022;2023-04-03T00:50:01;2.5;;;1.0;;
73421;SDS011;61637;47.760;-122.022;2023-04-03T00:52:02;2.4;;;1.1;;
73421;SDS011;61637;47.760;-122.022;2023-04-03T00:54:05;1.9;;;0.8;;
73421;SDS011;61637;47.760;-122.022;2023-04-03T00:56:02;2.7;;;0.9;;
73421;SDS011;61637;47.760;-122.022;2023-04-03T00:58:01;3.2;;;0.8;;
73421;SDS011;61637;47.760;-122.022;2023-04-03T01:00:06;2.0;;;0.7;;
73421;SDS011;61637;47.760;-122.022;2023-04-03T01:02:02;3.4;;;0.8;;
73421;SDS011;61637;47.760;-122.022;2023-04-03T01:04:02;2.0;;;0.8;;
73421;SDS011;61637;47.760;-122.022;2023-04-03T01:06:02;3.0;;;0.7;;
73421;SDS011;61637;47.760;-122.022;2023-04-03T01:08:02;2.6;;;0.7;;
73421;SDS011;61637;47.760;-122.022;2023-04-03T01:10:05;2.4;;;0.8;;
73421;SDS011;61637;47.760;-122.022;2023-04-03T01:12:14;1.8;;;0.7;;
73421;SDS011;61637;47.760;-122.022;2023-04-03T01:14:02;2.3;;;0.6;;
73421;SDS011;61637;47.760;-122.022;2023-04-03T01:16:02;2.4;;;0.7;;
73421;SDS011;61637;47.760;-122.022;2023-04-03T01:18:02;2.3;;;0.7;;
73421;SDS011;61637;47.760;-122.022;2023-04-03T01:20:21;2.1;;;0.7;;
73421;SDS011;61637;47.760;-122.022;2023-04-03T01:22:12;1.6;;;0.6;;
73421;SDS011;61637;47.760;-122.022;2023-04-03T01:24:09;2.9;;;0.6;;
73421;SDS011;61637;47.760;-122.022;2023-04-03T01:26:03;1.7;;;0.6;;
73421;SDS011;61637;47.760;-122.022;2023-04-03T01:28:01;2.6;;;0.7;;
73421;SDS011;61637;47.760;-122.022;2023-04-03T01:30:01;1.6;;;0.7;;
73421;SDS011;61637;47.760;-122.022;2023-04-03T01:32:03;2.0;;;0.7;;
73421;SDS011;61637;47.760;-122.022;2023-04-03T01:34:02;1.8;;;0.8;;
73421;SDS011;61637;47.760;-122.022;2023-04-03T01:36:02;2.0;;;0.6;;
73421;SDS011;61637;47.760;-122.022;2023-04-03T01:38:01;1.8;;;0.6;;
73421;SDS011;61637;47.760;-122.022;2023-04-03T01:40:02;1.8;;;0.6;;
73421;SDS011;61637;47.760;-122.022;2023-04-03T01:42:01;3.5;;;0.7;;
73421;SDS011;61637;47.760;-122.022;2023-04-03T01:44:01;1.8;;;0.7;;
73421;SDS011;61637;47.760;-122.022;2023-04-03T01:46:01;1.7;;;0.7;;
73421;SDS011;61637;47.760;-122.022;2023-04-03T01:48:01;3.2;;;1.0;;
73421;SDS011;61637;47.760;-122.022;2023-04-03T01:50:02;5.0;;;1.8;;
73421;SDS011;61637;47.760;-122.022;2023-04-03T01:52:01;4.7;;;1.6;;
73421;SDS011;61637;47.760;-122.022;2023-04-03T01:54:01;4.8;;;1.5;;
73421;SDS011;61637;47.760;-122.022;2023-04-03T01:56:01;4.4;;;2.5;;
73421;SDS011;61637;47.760;-122.022;2023-04-03T01:58:01;6.3;;;5.1;;
73421;SDS011;61637;47.760;-122.022;2023-04-03T02:00:01;9.3;;;8.5;;
73421;SDS011;61637;47.760;-122.022;2023-04-03T02:02:01;12.5;;;11.5;;
73421;SDS011;61637;47.760;-122.022;2023-04-03T02:04:01;13.7;;;12.6;;
73421;SDS011;61637;47.760;-122.022;2023-04-03T02:06:02;14.0;;;12.9;;
73421;SDS011;61637;47.760;-122.022;2023-04-03T02:08:02;14.5;;;13.4;;
73421;SDS011;61637;47.760;-122.022;2023-04-03T02:10:01;12.8;;;11.8;;
73421;SDS011;61637;47.760;-122.022;2023-04-03T02:12:01;14.5;;;13.3;;
73421;SDS011;61637;47.760;-122.022;2023-04-03T02:14:01;12.8;;;11.7;;
73421;SDS011;61637;47.760;-122.022;2023-04-03T02:16:07;13.9;;;12.7;;
73421;SDS011;61637;47.760;-122.022;2023-04-03T02:18:01;14.6;;;13.4;;
73421;SDS011;61637;47.760;-122.022;2023-04-03T02:20:02;13.8;;;12.7;;
73421;SDS011;61637;47.760;-122.022;2023-04-03T02:22:02;13.5;;;12.3;;
73421;SDS011;61637;47.760;-122.022;2023-04-03T02:24:01;13.9;;;12.6;;
73421;SDS011;61637;47.760;-122.022;2023-04-03T02:26:06;13.3;;;12.2;;
73421;SDS011;61637;47.760;-122.022;2023-04-03T02:28:01;13.4;;;12.3;;
73421;SDS011;61637;47.760;-122.022;2023-04-03T02:30:02;14.7;;;13.4;;
73421;SDS011;61637;47.760;-122.022;2023-04-03T02:32:02;14.7;;;13.4;;
73421;SDS011;61637;47.760;-122.022;2023-04-03T02:34:01;14.7;;;13.5;;
73421;SDS011;61637;47.760;-122.022;2023-04-03T02:36:02;15.1;;;13.9;;
73421;SDS011;61637;47.760;-122.022;2023-04-03T02:38:01;14.9;;;13.6;;
73421;SDS011;61637;47.760;-122.022;2023-04-03T02:40:01;15.3;;;13.9;;
73421;SDS011;61637;47.760;-122.022;2023-04-03T02:42:02;14.2;;;12.9;;
73421;SDS011;61637;47.760;-122.022;2023-04-03T02:44:02;13.9;;;12.6;;
73421;SDS011;61637;47.760;-122.022;2023-04-03T02:46:01;14.4;;;13.2;;
73421;SDS011;61637;47.760;-122.022;2023-04-03T02:48:01;13.8;;;12.6;;
73421;SDS011;61637;47.760;-122.022;2023-04-03T02:50:01;14.1;;;13.0;;
73421;SDS011;61637;47.760;-122.022;2023-04-03T02:52:01;14.6;;;13.4;;
73421;SDS011;61637;47.760;-122.022;2023-04-03T02:54:01;13.4;;;12.3;;
73421;SDS011;61637;47.760;-122.022;2023-04-03T02:56:01;12.9;;;11.8;;
73421;SDS011;61637;47.760;-122.022;2023-04-03T02:58:01;14.4;;;13.2;;
73421;SDS011;61637;47.760;-122.022;2023-04-03T03:00:02;14.5;;;13.3;;
73421;SDS011;61637;47.760;-122.022;2023-04-03T03:02:01;14.7;;;13.5;;
73421;SDS011;61637;47.760;-122.022;2023-04-03T03:04:01;13.4;;;12.3;;
73421;SDS011;61637;47.760;-122.022;2023-04-03T03:06:02;14.7;;;13.5;;
73421;SDS011;61637;47.760;-122.022;2023-04-03T03:08:02;14.7;;;13.5;;
73421;SDS011;61637;47.760;-122.022;2023-04-03T03:10:01;14.0;;;12.8;;
73421;SDS011;61637;47.760;-122.022;2023-04-03T03:12:01;14.8;;;13.6;;
73421;SDS011;61637;47.760;-122.022;2023-04-03T03:14:01;15.4;;;14.2;;
73421;SDS011;61637;47.760;-122.022;2023-04-03T03:16:01;14.2;;;13.1;;
73421;SDS011;61637;47.760;-122.022;2023-04-03T03:18:03;15.3;;;14.0;;
73421;SDS011;61637;47.760;-122.022;2023-04-03T03:20:02;14.6;;;13.5;;
73421;SDS011;61637;47.760;-122.022;2023-04-03T03:22:01;14.7;;;13.5;;
73421;SDS011;61637;47.760;-122.022;2023-04-03T03:24:02;14.1;;;12.9;;
73421;SDS011;61637;47.760;-122.022;2023-04-03T03:26:03;15.1;;;13.8;;
73421;SDS011;61637;47.760;-122.022;2023-04-03T03:28:01;15.2;;;14.0;;
73421;SDS011;61637;47.760;-122.022;2023-04-03T03:30:01;14.4;;;13.2;;
73421;SDS011;61637;47.760;-122.022;2023-04-03T03:32:01;14.8;;;13.6;;
73421;SDS011;61637;47.760;-122.022;2023-04-03T03:34:01;14.8;;;13.6;;
73421;SDS011;61637;47.760;-122.022;2023-04-03T03:36:01;14.4;;;13.2;;
73421;SDS011;61637;47.760;-122.022;2023-04-03T03:38:02;15.9;;;14.6;;
73421;SDS011;61637;47.760;-122.022;2023-04-03T03:40:01;15.5;;;14.3;;
73421;SDS011;61637;47.760;-122.022;2023-04-03T03:42:02;15.7;;;14.3;;
73421;SDS011;61637;47.760;-122.022;2023-04-03T03:44:02;15.3;;;14.0;;
73421;SDS011;61637;47.760;-122.022;2023-04-03T03:46:01;15.7;;;14.5;;
73421;SDS011;61637;47.760;-122.022;2023-04-03T03:48:01;16.2;;;14.9;;
73421;SDS011;61637;47.760;-122.022;2023-04-03T03:50:01;16.2;;;14.9;;
73421;SDS011;61637;47.760;-122.022;2023-04-03T03:52:01;15.9;;;14.6;;
73421;SDS011;61637;47.760;-122.022;2023-04-03T03:54:01;15.9;;;14.4;;
73421;SDS011;61637;47.760;-122.022;2023-04-03T03:56:02;15.3;;;14.1;;
73421;SDS011;61637;47.760;-122.022;2023-04-03T03:58:01;15.7;;;14.4;;
73421;SDS011;61637;47.760;-122.022;2023-04-03T04:00:01;15.4;;;14.2;;
73421;SDS011;61637;47.760;-122.022;2023-04-03T04:02:01;14.5;;;13.3;;
73421;SDS011;61637;47.760;-122.022;2023-04-03T04:04:01;14.9;;;13.6;;
73421;SDS011;61637;47.760;-122.022;2023-04-03T04:06:02;14.7;;;13.5;;
73421;SDS011;61637;47.760;-122.022;2023-04-03T04:08:01;14.7;;;13.5;;
73421;SDS011;61637;47.760;-122.022;2023-04-03T04:10:01;15.3;;;14.1;;
73421;SDS011;61637;47.760;-122.022;2023-04-03T04:12:01;14.8;;;13.6;;
73421;SDS011;61637;47.760;-122.022;2023-04-03T04:14:01;15.1;;;13.9;;
73421;SDS011;61637;47.760;-122.022;2023-04-03T04:16:01;15.2;;;13.9;;
73421;SDS011;61637;47.760;-122.022;2023-04-03T04:18:02;15.2;;;14.0;;
73421;SDS011;61637;47.760;-122.022;2023-04-03T04:20:02;15.0;;;13.6;;
73421;SDS011;61637;47.760;-122.022;2023-04-03T04:22:01;15.7;;;14.4;;
73421;SDS011;61637;47.760;-122.022;2023-04-03T04:24:01;14.1;;;13.0;;
73421;SDS011;61637;47.760;-122.022;2023-04-03T04:26:01;15.1;;;13.9;;
73421;SDS011;61637;47.760;-122.022;2023-04-03T04:28:01;14.8;;;13.6;;
73421;SDS011;61637;47.760;-122.022;2023-04-03T04:30:01;15.5;;;14.3;;
73421;SDS011;61637;47.760;-122.022;2023-04-03T04:32:01;15.1;;;13.9;;
73421;SDS011;61637;47.760;-122.022;2023-04-03T04:34:01;14.4;;;13.3;;
73421;SDS011;61637;47.760;-122.022;2023-04-03T04:36:01;14.5;;;13.3;;
73421;SDS011;61637;47.760;-122.022;2023-04-03T04:38:01;14.7;;;13.5;;
73421;SDS011;61637;47.760;-122.022;2023-04-03T04:40:01;15.5;;;14.2;;
73421;SDS011;61637;47.760;-122.022;2023-04-03T04:42:01;15.4;;;14.1;;
73421;SDS011;61637;47.760;-122.022;2023-04-03T04:44:01;16.1;;;14.7;;
73421;SDS011;61637;47.760;-122.022;2023-04-03T04:46:01;15.9;;;14.4;;
73421;SDS011;61637;47.760;-122.022;2023-04-03T04:48:01;16.5;;;15.2;;
73421;SDS011;61637;47.760;-122.022;2023-04-03T04:50:01;15.5;;;14.2;;
73421;SDS011;61637;47.760;-122.022;2023-04-03T04:52:01;15.6;;;14.3;;
73421;SDS011;61637;47.760;-122.022;2023-04-03T04:54:01;15.6;;;14.3;;
73421;SDS011;61637;47.760;-122.022;2023-04-03T04:56:02;14.9;;;13.6;;
73421;SDS011;61637;47.760;-122.022;2023-04-03T04:58:01;16.4;;;15.1;;
73421;SDS011;61637;47.760;-122.022;2023-04-03T05:00:02;15.8;;;14.5;;
73421;SDS011;61637;47.760;-122.022;2023-04-03T05:02:01;16.0;;;14.7;;
73421;SDS011;61637;47.760;-122.022;2023-04-03T05:04:01;16.7;;;15.3;;
73421;SDS011;61637;47.760;-122.022;2023-04-03T05:06:01;17.5;;;16.1;;
73421;SDS011;61637;47.760;-122.022;2023-04-03T05:08:02;17.8;;;16.3;;
73421;SDS011;61637;47.760;-122.022;2023-04-03T05:10:01;17.4;;;15.9;;
73421;SDS011;61637;47.760;-122.022;2023-04-03T05:12:02;16.7;;;15.3;;
73421;SDS011;61637;47.760;-122.022;2023-04-03T05:14:01;18.4;;;16.8;;
73421;SDS011;61637;47.760;-122.022;2023-04-03T05:16:01;17.4;;;16.0;;
73421;SDS011;61637;47.760;-122.022;2023-04-03T05:18:02;16.9;;;15.5;;
73421;SDS011;61637;47.760;-122.022;2023-04-03T05:20:01;17.8;;;16.4;;
73421;SDS011;61637;47.760;-122.022;2023-04-03T05:22:01;17.5;;;16.1;;
73421;SDS011;61637;47.760;-122.022;2023-04-03T05:24:01;18.3;;;16.7;;
73421;SDS011;61637;47.760;-122.022;2023-04-03T05:26:01;18.8;;;16.8;;
73421;SDS011;61637;47.760;-122.022;2023-04-03T05:28:01;16.2;;;14.9;;
73421;SDS011;61637;47.760;-122.022;2023-04-03T05:30:01;16.1;;;14.8;;
73421;SDS011;61637;47.760;-122.022;2023-04-03T05:32:01;16.2;;;14.7;;
73421;SDS011;61637;47.760;-122.022;2023-04-03T05:34:01;19.3;;;15.1;;
73421;SDS011;61637;47.760;-122.022;2023-04-03T05:36:03;18.4;;;15.1;;
73421;SDS011;61637;47.760;-122.022;2023-04-03T05:38:01;15.7;;;14.4;;
73421;SDS011;61637;47.760;-122.022;2023-04-03T05:40:02;16.1;;;14.7;;
73421;SDS011;61637;47.760;-122.022;2023-04-03T05:42:01;16.2;;;14.8;;
73421;SDS011;61637;47.760;-122.022;2023-04-03T05:44:01;15.9;;;14.6;;
73421;SDS011;61637;47.760;-122.022;2023-04-03T05:46:01;16.2;;;14.5;;
73421;SDS011;61637;47.760;-122.022;2023-04-03T05:48:01;16.4;;;14.8;;
73421;SDS011;61637;47.760;-122.022;2023-04-03T05:50:02;16.2;;;14.9;;
73421;SDS011;61637;47.760;-122.022;2023-04-03T05:52:02;17.2;;;14.4;;
73421;SDS011;61637;47.760;-122.022;2023-04-03T05:54:08;16.4;;;15.1;;
73421;SDS011;61637;47.760;-122.022;2023-04-03T05:56:01;16.7;;;15.3;;
73421;SDS011;61637;47.760;-122.022;2023-04-03T05:58:01;16.9;;;15.1;;
73421;SDS011;61637;47.760;-122.022;2023-04-03T06:00:01;16.7;;;15.0;;
73421;SDS011;61637;47.760;-122.022;2023-04-03T06:02:01;16.0;;;14.6;;
73421;SDS011;61637;47.760;-122.022;2023-04-03T06:04:01;15.8;;;14.4;;
73421;SDS011;61637;47.760;-122.022;2023-04-03T06:06:04;16.5;;;15.2;;
73421;SDS011;61637;47.760;-122.022;2023-04-03T06:08:01;15.1;;;13.8;;
73421;SDS011;61637;47.760;-122.022;2023-04-03T06:10:02;15.8;;;14.6;;
73421;SDS011;61637;47.760;-122.022;2023-04-03T06:12:01;16.6;;;15.1;;
73421;SDS011;61637;47.760;-122.022;2023-04-03T06:14:02;16.5;;;15.2;;
73421;SDS011;61637;47.760;-122.022;2023-04-03T06:16:01;15.9;;;14.6;;
73421;SDS011;61637;47.760;-122.022;2023-04-03T06:18:01;14.8;;;13.6;;
73421;SDS011;61637;47.760;-122.022;2023-04-03T06:20:02;17.5;;;15.8;;
73421;SDS011;61637;47.760;-122.022;2023-04-03T06:22:01;15.9;;;14.6;;
73421;SDS011;61637;47.760;-122.022;2023-04-03T06:24:01;15.4;;;14.2;;
73421;SDS011;61637;47.760;-122.022;2023-04-03T06:26:01;15.9;;;14.6;;
73421;SDS011;61637;47.760;-122.022;2023-04-03T06:28:01;15.1;;;13.9;;
73421;SDS011;61637;47.760;-122.022;2023-04-03T06:30:01;15.2;;;14.0;;
73421;SDS011;61637;47.760;-122.022;2023-04-03T06:32:01;16.6;;;15.2;;
73421;SDS011;61637;47.760;-122.022;2023-04-03T06:34:01;16.1;;;14.8;;
73421;SDS011;61637;47.760;-122.022;2023-04-03T06:36:04;14.8;;;13.6;;
73421;SDS011;61637;47.760;-122.022;2023-04-03T06:38:02;16.6;;;15.0;;
73421;SDS011;61637;47.760;-122.022;2023-04-03T06:40:01;16.3;;;15.0;;
73421;SDS011;61637;47.760;-122.022;2023-04-03T06:42:01;15.7;;;14.5;;
73421;SDS011;61637;47.760;-122.022;2023-04-03T06:44:01;14.6;;;13.4;;
73421;SDS011;61637;47.760;-122.022;2023-04-03T06:46:01;15.5;;;14.3;;
73421;SDS011;61637;47.760;-122.022;2023-04-03T06:48:01;15.2;;;14.0;;
73421;SDS011;61637;47.760;-122.022;2023-04-03T06:50:01;14.3;;;13.1;;
73421;SDS011;61637;47.760;-122.022;2023-04-03T06:52:01;15.2;;;14.0;;
73421;SDS011;61637;47.760;-122.022;2023-04-03T06:54:03;14.9;;;13.7;;
73421;SDS011;61637;47.760;-122.022;2023-04-03T06:56:01;16.6;;;15.2;;
73421;SDS011;61637;47.760;-122.022;2023-04-03T06:58:02;14.8;;;13.6;;
73421;SDS011;61637;47.760;-122.022;2023-04-03T07:00:03;14.5;;;13.4;;
73421;SDS011;61637;47.760;-122.022;2023-04-03T07:02:01;15.9;;;14.7;;
73421;SDS011;61637;47.760;-122.022;2023-04-03T07:04:01;15.7;;;14.3;;
73421;SDS011;61637;47.760;-122.022;2023-04-03T07:06:02;15.3;;;14.1;;
73421;SDS011;61637;47.760;-122.022;2023-04-03T07:08:01;15.8;;;14.5;;
73421;SDS011;61637;47.760;-122.022;2023-04-03T07:10:01;16.0;;;14.7;;
73421;SDS011;61637;47.760;-122.022;2023-04-03T07:12:01;15.6;;;14.4;;
73421;SDS011;61637;47.760;-122.022;2023-04-03T07:14:01;15.6;;;14.4;;
73421;SDS011;61637;47.760;-122.022;2023-04-03T07:16:01;16.5;;;15.2;;
73421;SDS011;61637;47.760;-122.022;2023-04-03T07:18:01;16.9;;;15.5;;
73421;SDS011;61637;47.760;-122.022;2023-04-03T07:20:02;16.0;;;14.7;;
73421;SDS011;61637;47.760;-122.022;2023-04-03T07:22:01;16.3;;;14.9;;
73421;SDS011;61637;47.760;-122.022;2023-04-03T07:24:01;16.6;;;15.0;;
73421;SDS011;61637;47.760;-122.022;2023-04-03T07:26:01;15.4;;;13.9;;
73421;SDS011;61637;47.760;-122.022;2023-04-03T07:28:01;30.9;;;16.6;;
73421;SDS011;61637;47.760;-122.022;2023-04-03T07:30:02;16.2;;;14.9;;
73421;SDS011;61637;47.760;-122.022;2023-04-03T07:32:01;20.2;;;15.6;;
73421;SDS011;61637;47.760;-122.022;2023-04-03T07:34:01;14.9;;;13.7;;
73421;SDS011;61637;47.760;-122.022;2023-04-03T07:36:01;18.4;;;15.2;;
73421;SDS011;61637;47.760;-122.022;2023-04-03T07:38:01;16.5;;;14.4;;
73421;SDS011;61637;47.760;-122.022;2023-04-03T07:40:01;22.7;;;14.0;;
73421;SDS011;61637;47.760;-122.022;2023-04-03T07:42:01;17.2;;;14.2;;
73421;SDS011;61637;47.760;-122.022;2023-04-03T07:44:01;15.7;;;14.3;;
73421;SDS011;61637;47.760;-122.022;2023-04-03T07:46:01;34.6;;;14.1;;
73421;SDS011;61637;47.760;-122.022;2023-04-03T07:48:01;15.5;;;14.2;;
73421;SDS011;61637;47.760;-122.022;2023-04-03T07:50:01;40.3;;;14.6;;
73421;SDS011;61637;47.760;-122.022;2023-04-03T07:52:01;29.7;;;14.5;;
73421;SDS011;61637;47.760;-122.022;2023-04-03T07:54:02;25.9;;;14.1;;
73421;SDS011;61637;47.760;-122.022;2023-04-03T07:56:01;37.6;;;13.9;;
73421;SDS011;61637;47.760;-122.022;2023-04-03T07:58:01;41.4;;;14.2;;
73421;SDS011;61637;47.760;-122.022;2023-04-03T08:00:01;15.0;;;13.7;;
73421;SDS011;61637;47.760;-122.022;2023-04-03T08:02:02;15.9;;;14.3;;
73421;SDS011;61637;47.760;-122.022;2023-04-03T08:04:01;60.6;;;15.5;;
73421;SDS011;61637;47.760;-122.022;2023-04-03T08:06:03;76.0;;;14.8;;
73421;SDS011;61637;47.760;-122.022;2023-04-03T08:08:01;61.6;;;16.0;;
73421;SDS011;61637;47.760;-122.022;2023-04-03T08:10:01;23.0;;;14.3;;
73421;SDS011;61637;47.760;-122.022;2023-04-03T08:12:01;91.4;;;16.9;;
73421;SDS011;61637;47.760;-122.022;2023-04-03T08:14:01;119.5;;;17.8;;
73421;SDS011;61637;47.760;-122.022;2023-04-03T08:16:07;302.8;;;19.2;;
73421;SDS011;61637;47.760;-122.022;2023-04-03T08:18:02;302.8;;;19.2;;
73421;SDS011;61637;47.760;-122.022;2023-04-03T08:20:02;209.9;;;18.4;;
73421;SDS011;61637;47.760;-122.022;2023-04-03T08:22:01;102.6;;;15.4;;
73421;SDS011;61637;47.760;-122.022;2023-04-03T08:24:01;99.8;;;16.8;;
73421;SDS011;61637;47.760;-122.022;2023-04-03T08:26:06;178.9;;;16.3;;
73421;SDS011;61637;47.760;-122.022;2023-04-03T08:28:01;23.8;;;14.5;;
73421;SDS011;61637;47.760;-122.022;2023-04-03T08:30:02;33.6;;;14.1;;
73421;SDS011;61637;47.760;-122.022;2023-04-03T08:32:01;60.2;;;16.3;;
73421;SDS011;61637;47.760;-122.022;2023-04-03T08:34:01;41.9;;;15.1;;
73421;SDS011;61637;47.760;-122.022;2023-04-03T08:36:01;31.9;;;14.1;;
73421;SDS011;61637;47.760;-122.022;2023-04-03T08:38:01;39.1;;;14.8;;
73421;SDS011;61637;47.760;-122.022;2023-04-03T08:40:01;26.9;;;14.9;;
73421;SDS011;61637;47.760;-122.022;2023-04-03T08:42:05;29.7;;;14.3;;
73421;SDS011;61637;47.760;-122.022;2023-04-03T08:44:10;39.7;;;14.0;;
73421;SDS011;61637;47.760;-122.022;2023-04-03T08:46:04;36.4;;;14.4;;
73421;SDS011;61637;47.760;-122.022;2023-04-03T08:48:04;25.6;;;13.0;;
73421;SDS011;61637;47.760;-122.022;2023-04-03T08:50:04;40.8;;;14.6;;
73421;SDS011;61637;47.760;-122.022;2023-04-03T08:52:05;25.8;;;13.9;;
73421;SDS011;61637;47.760;-122.022;2023-04-03T08:54:05;36.4;;;13.9;;
73421;SDS011;61637;47.760;-122.022;2023-04-03T08:56:04;45.1;;;15.4;;
73421;SDS011;61637;47.760;-122.022;2023-04-03T08:58:03;23.7;;;13.9;;
73421;SDS011;61637;47.760;-122.022;2023-04-03T09:00:04;23.0;;;14.4;;
73421;SDS011;61637;47.760;-122.022;2023-04-03T09:02:04;29.4;;;14.6;;
73421;SDS011;61637;47.760;-122.022;2023-04-03T09:04:02;15.3;;;14.1;;
73421;SDS011;61637;47.760;-122.022;2023-04-03T09:06:04;32.3;;;14.2;;
73421;SDS011;61637;47.760;-122.022;2023-04-03T09:08:06;26.9;;;15.1;;
73421;SDS011;61637;47.760;-122.022;2023-04-03T09:10:02;16.4;;;14.3;;
73421;SDS011;61637;47.760;-122.022;2023-04-03T09:12:11;28.2;;;14.5;;
73421;SDS011;61637;47.760;-122.022;2023-04-03T09:14:04;20.3;;;14.8;;
73421;SDS011;61637;47.760;-122.022;2023-04-03T09:16:03;14.9;;;13.7;;
73421;SDS011;61637;47.760;-122.022;2023-04-03T09:18:05;86.2;;;15.8;;
73421;SDS011;61637;47.760;-122.022;2023-04-03T09:20:13;17.3;;;14.3;;
73421;SDS011;61637;47.760;-122.022;2023-04-03T09:22:17;16.6;;;14.9;;
73421;SDS011;61637;47.760;-122.022;2023-04-03T09:24:04;23.8;;;14.1;;
73421;SDS011;61637;47.760;-122.022;2023-04-03T09:26:05;23.1;;;15.0;;
73421;SDS011;61637;47.760;-122.022;2023-04-03T09:28:01;61.3;;;14.3;;
73421;SDS011;61637;47.760;-122.022;2023-04-03T09:30:03;53.9;;;15.5;;
73421;SDS011;61637;47.760;-122.022;2023-04-03T09:32:12;28.7;;;14.1;;
73421;SDS011;61637;47.760;-122.022;2023-04-03T09:34:05;24.0;;;15.6;;
73421;SDS011;61637;47.760;-122.022;2023-04-03T09:36:01;16.9;;;15.4;;
73421;SDS011;61637;47.760;-122.022;2023-04-03T09:38:17;20.9;;;14.8;;
73421;SDS011;61637;47.760;-122.022;2023-04-03T09:40:01;16.2;;;14.8;;
73421;SDS011;61637;47.760;-122.022;2023-04-03T09:42:03;16.5;;;13.8;;
73421;SDS011;61637;47.760;-122.022;2023-04-03T09:44:01;16.3;;;14.8;;
73421;SDS011;61637;47.760;-122.022;2023-04-03T09:46:23;16.3;;;15.0;;
73421;SDS011;61637;47.760;-122.022;2023-04-03T09:48:08;16.2;;;14.9;;
73421;SDS011;61637;47.760;-122.022;2023-04-03T09:50:19;15.5;;;14.3;;
73421;SDS011;61637;47.760;-122.022;2023-04-03T09:52:18;15.9;;;14.6;;
73421;SDS011;61637;47.760;-122.022;2023-04-03T09:56:03;16.1;;;14.8;;
73421;SDS011;61637;47.760;-122.022;2023-04-03T09:58:04;15.1;;;13.9;;
73421;SDS011;61637;47.760;-122.022;2023-04-03T10:00:02;16.2;;;14.9;;
73421;SDS011;61637;47.760;-122.022;2023-04-03T10:02:14;16.1;;;14.8;;
73421;SDS011;61637;47.760;-122.022;2023-04-03T10:04:06;16.3;;;14.8;;
73421;SDS011;61637;47.760;-122.022;2023-04-03T10:06:03;16.6;;;15.2;;
73421;SDS011;61637;47.760;-122.022;2023-04-03T10:08:19;17.2;;;15.8;;
73421;SDS011;61637;47.760;-122.022;2023-04-03T10:10:20;16.1;;;14.4;;
73421;SDS011;61637;47.760;-122.022;2023-04-03T10:12:04;16.5;;;15.1;;
73421;SDS011;61637;47.760;-122.022;2023-04-03T10:14:03;15.7;;;14.4;;
73421;SDS011;61637;47.760;-122.022;2023-04-03T10:16:04;16.7;;;15.2;;
73421;SDS011;61637;47.760;-122.022;2023-04-03T10:18:03;15.6;;;14.2;;
73421;SDS011;61637;47.760;-122.022;2023-04-03T10:20:06;16.0;;;14.0;;
73421;SDS011;61637;47.760;-122.022;2023-04-03T10:22:08;16.2;;;14.6;;
73421;SDS011;61637;47.760;-122.022;2023-04-03T10:24:07;16.4;;;14.3;;
73421;SDS011;61637;47.760;-122.022;2023-04-03T10:26:09;15.4;;;14.0;;
73421;SDS011;61637;47.760;-122.022;2023-04-03T10:28:03;16.3;;;14.8;;
73421;SDS011;61637;47.760;-122.022;2023-04-03T10:30:14;16.4;;;13.3;;
73421;SDS011;61637;47.760;-122.022;2023-04-03T10:32:13;15.1;;;13.8;;
73421;SDS011;61637;47.760;-122.022;2023-04-03T10:34:05;16.0;;;14.5;;
73421;SDS011;61637;47.760;-122.022;2023-04-03T10:36:07;17.1;;;15.6;;
73421;SDS011;61637;47.760;-122.022;2023-04-03T10:38:07;17.0;;;15.5;;
73421;SDS011;61637;47.760;-122.022;2023-04-03T10:40:08;15.7;;;14.3;;
73421;SDS011;61637;47.760;-122.022;2023-04-03T10:42:08;16.6;;;15.0;;
73421;SDS011;61637;47.760;-122.022;2023-04-03T10:44:11;16.2;;;14.6;;
73421;SDS011;61637;47.760;-122.022;2023-04-03T10:46:04;17.9;;;16.3;;
73421;SDS011;61637;47.760;-122.022;2023-04-03T10:48:07;16.2;;;14.8;;
73421;SDS011;61637;47.760;-122.022;2023-04-03T10:50:15;16.3;;;14.8;;
73421;SDS011;61637;47.760;-122.022;2023-04-03T10:52:07;17.7;;;14.2;;
73421;SDS011;61637;47.760;-122.022;2023-04-03T10:54:05;19.8;;;15.4;;
73421;SDS011;61637;47.760;-122.022;2023-04-03T10:56:07;18.4;;;15.1;;
73421;SDS011;61637;47.760;-122.022;2023-04-03T10:58:03;16.8;;;15.2;;
73421;SDS011;61637;47.760;-122.022;2023-04-03T11:00:05;16.6;;;14.9;;
73421;SDS011;61637;47.760;-122.022;2023-04-03T11:02:06;16.7;;;15.0;;
73421;SDS011;61637;47.760;-122.022;2023-04-03T11:04:04;18.6;;;13.4;;
73421;SDS011;61637;47.760;-122.022;2023-04-03T11:06:04;16.4;;;14.7;;
73421;SDS011;61637;47.760;-122.022;2023-04-03T11:08:04;23.4;;;14.7;;
73421;SDS011;61637;47.760;-122.022;2023-04-03T11:10:05;28.5;;;14.7;;
73421;SDS011;61637;47.760;-122.022;2023-04-03T11:12:04;15.6;;;13.9;;
73421;SDS011;61637;47.760;-122.022;2023-04-03T11:14:03;15.5;;;13.9;;
73421;SDS011;61637;47.760;-122.022;2023-04-03T11:16:02;44.0;;;14.7;;
73421;SDS011;61637;47.760;-122.022;2023-04-03T11:18:06;20.3;;;13.2;;
73421;SDS011;61637;47.760;-122.022;2023-04-03T11:20:06;14.9;;;12.8;;
73421;SDS011;61637;47.760;-122.022;2023-04-03T11:22:06;20.1;;;13.4;;
73421;SDS011;61637;47.760;-122.022;2023-04-03T11:24:04;18.7;;;13.7;;
73421;SDS011;61637;47.760;-122.022;2023-04-03T11:26:09;15.5;;;14.0;;
73421;SDS011;61637;47.760;-122.022;2023-04-03T11:28:03;15.9;;;14.3;;
73421;SDS011;61637;47.760;-122.022;2023-04-03T11:30:02;16.6;;;14.8;;
73421;SDS011;61637;47.760;-122.022;2023-04-03T11:32:10;26.2;;;13.4;;
73421;SDS011;61637;47.760;-122.022;2023-04-03T11:34:07;19.9;;;14.3;;
73421;SDS011;61637;47.760;-122.022;2023-04-03T11:36:06;19.7;;;14.1;;